Terminal Aerodrome Forecast
Issued by NWS

Home | Current Version | Previous Version | Text Only | Print | Product List | Glossary On
Versions: 1 2 3 4 5 6 7 8 9 10 11 12 13 14 15
361
FTUS42 KMLB 242335
TAFTIX
TAF
KTIX 242335Z 2500/2524 18004KT P6SM FEW050 BKN150
     FM250400 VRB02KT P6SM SCT250
     FM251400 26005KT P6SM FEW030 SCT250
     FM251800 14008KT P6SM SCT030 BKN060
      AMD NOT SKED 2501/2511=

USA.gov is the U.S. government's official web portal to all federal, state and local government web resources and services.